Time;durP1;ratioP1;P1;durP2;ratioP2;P2;SDS_P1;SDS_P2;PMS_P1;PMS_P2;Temp;Humidity;BMP_temperature;BMP_pressure;BME280_temperature;BME280_humidity;BME280_pressure;Samples;Min_cycle;Max_cycle;Signal;HPM_P1;HPM_P2
2022/03/05 00:01:31;;;;;;;23.08;10.10;;;;;;;;;;5009941;28;20490;-73
2022/03/05 00:03:57;;;;;;;23.70;10.48;;;;;;;;;;5009572;28;20513;-73
2022/03/05 00:06:23;;;;;;;22.40;10.77;;;;;;;;;;5027023;28;20042;-73
2022/03/05 00:08:49;;;;;;;21.05;9.90;;;;;;;;;;5009328;28;20045;-74
2022/03/05 00:11:15;;;;;;;23.30;10.25;;;;;;;;;;5009589;28;20512;-73
2022/03/05 00:13:41;;;;;;;18.63;9.02;;;;;;;;;;5009878;28;20570;-73
2022/03/05 00:16:07;;;;;;;19.52;9.73;;;;;;;;;;4993912;28;20390;-73
2022/03/05 00:18:34;;;;;;;17.55;6.78;;;;;;;;;;5009858;28;20525;-72
2022/03/05 00:21:00;;;;;;;14.98;7.00;;;;;;;;;;5009257;28;20758;-73
2022/03/05 00:23:26;;;;;;;20.45;8.48;;;;;;;;;;4992797;28;20053;-73
2022/03/05 00:25:52;;;;;;;13.35;5.22;;;;;;;;;;5009579;28;20128;-73
2022/03/05 00:28:18;;;;;;;18.25;8.65;;;;;;;;;;5008923;28;20046;-73
2022/03/05 00:30:45;;;;;;;19.52;7.95;;;;;;;;;;5026910;28;20295;-73
2022/03/05 00:33:12;;;;;;;17.77;8.55;;;;;;;;;;5008877;28;20092;-74
2022/03/05 00:35:38;;;;;;;21.20;8.80;;;;;;;;;;5008795;28;20053;-74
2022/03/05 00:38:04;;;;;;;20.00;8.63;;;;;;;;;;4992919;28;20121;-74
2022/03/05 00:40:30;;;;;;;23.70;10.27;;;;;;;;;;4992755;28;20049;-74
2022/03/05 00:42:56;;;;;;;21.77;9.93;;;;;;;;;;5009143;28;20049;-74
2022/03/05 00:45:22;;;;;;;24.92;10.23;;;;;;;;;;5009016;28;20073;-74
2022/03/05 00:47:48;;;;;;;23.35;10.30;;;;;;;;;;5026824;28;20466;-74
2022/03/05 00:50:15;;;;;;;21.55;9.48;;;;;;;;;;5008697;28;20050;-74
2022/03/05 00:52:42;;;;;;;22.13;9.65;;;;;;;;;;5028250;28;20502;-74
2022/03/05 00:55:08;;;;;;;21.55;9.48;;;;;;;;;;4995946;28;20041;-74
2022/03/05 00:57:34;;;;;;;21.75;10.10;;;;;;;;;;5012156;28;20041;-74
2022/03/05 01:00:00;;;;;;;21.05;8.93;;;;;;;;;;5012165;28;20045;-74
2022/03/05 01:02:27;;;;;;;21.67;9.68;;;;;;;;;;5029897;28;20387;-74
2022/03/05 01:04:53;;;;;;;25.20;10.50;;;;;;;;;;5012708;28;20504;-73
2022/03/05 01:07:19;;;;;;;24.85;11.27;;;;;;;;;;5029940;28;20120;-73
2022/03/05 01:09:45;;;;;;;23.38;9.75;;;;;;;;;;5012743;28;20490;-72
2022/03/05 01:12:11;;;;;;;22.05;9.07;;;;;;;;;;5012675;28;20067;-73
2022/03/05 01:14:37;;;;;;;22.30;10.45;;;;;;;;;;5012137;28;20041;-73
2022/03/05 01:17:03;;;;;;;22.45;10.43;;;;;;;;;;5012127;28;20053;-73
2022/03/05 01:19:29;;;;;;;22.92;10.48;;;;;;;;;;5029484;28;20041;-73
2022/03/05 01:21:55;;;;;;;21.85;9.93;;;;;;;;;;4996202;28;20037;-73
2022/03/05 01:24:22;;;;;;;22.02;9.30;;;;;;;;;;4995684;28;20037;-73
2022/03/05 01:26:48;;;;;;;20.30;9.65;;;;;;;;;;5031202;28;20029;-75
2022/03/05 01:29:14;;;;;;;23.23;9.23;;;;;;;;;;5012795;28;20034;-75
2022/03/05 01:31:40;;;;;;;23.60;10.63;;;;;;;;;;5012546;28;20587;-73
2022/03/05 01:34:06;;;;;;;20.77;9.13;;;;;;;;;;4995647;28;20465;-72
2022/03/05 01:36:32;;;;;;;22.95;9.85;;;;;;;;;;5012089;28;20050;-73
2022/03/05 01:38:58;;;;;;;23.83;10.75;;;;;;;;;;5012014;28;20045;-73
2022/03/05 01:41:25;;;;;;;23.83;10.15;;;;;;;;;;4995488;28;20042;-73
2022/03/05 01:43:52;;;;;;;18.50;8.57;;;;;;;;;;5011622;28;20045;-73
2022/03/05 01:46:32;;;;;;;21.63;9.40;;;;;;;;;;5011282;28;20048;-73
2022/03/05 01:48:58;;;;;;;23.48;9.57;;;;;;;;;;5012332;28;20050;-75
2022/03/05 01:51:24;;;;;;;19.88;8.25;;;;;;;;;;4995233;28;20048;-75
2022/03/05 01:53:50;;;;;;;19.77;8.15;;;;;;;;;;5011866;28;20044;-75
2022/03/05 01:56:17;;;;;;;19.33;9.57;;;;;;;;;;5011403;28;20040;-76
2022/03/05 01:58:43;;;;;;;21.50;10.05;;;;;;;;;;5011341;28;20037;-75
2022/03/05 02:01:09;;;;;;;22.33;8.98;;;;;;;;;;5028985;28;20077;-75
2022/03/05 02:03:37;;;;;;;22.58;9.60;;;;;;;;;;5011642;28;20498;-73
2022/03/05 02:06:03;;;;;;;24.27;9.25;;;;;;;;;;5011051;28;20064;-73
2022/03/05 02:08:29;;;;;;;27.77;10.30;;;;;;;;;;5028792;28;20046;-73
2022/03/05 02:10:55;;;;;;;23.10;9.60;;;;;;;;;;5011270;28;20041;-73
2022/03/05 02:13:22;;;;;;;23.02;9.48;;;;;;;;;;5028293;28;20045;-73
2022/03/05 02:15:53;;;;;;;23.38;9.48;;;;;;;;;;5011261;28;20068;-73
2022/03/05 02:18:19;;;;;;;21.63;10.05;;;;;;;;;;5010776;28;20069;-73
2022/03/05 02:20:45;;;;;;;21.13;9.32;;;;;;;;;;4994865;28;20041;-73
2022/03/05 02:23:11;;;;;;;21.35;9.90;;;;;;;;;;5011481;28;20494;-73
2022/03/05 02:25:37;;;;;;;22.17;10.40;;;;;;;;;;5011430;28;20049;-73
2022/03/05 02:28:04;;;;;;;22.02;8.75;;;;;;;;;;5028841;28;20037;-73
2022/03/05 02:30:30;;;;;;;20.10;9.48;;;;;;;;;;5010958;28;20060;-74
2022/03/05 02:32:56;;;;;;;24.15;10.57;;;;;;;;;;5011148;28;20045;-74
2022/03/05 02:35:22;;;;;;;21.83;9.90;;;;;;;;;;5010637;28;20057;-73
2022/03/05 02:37:48;;;;;;;23.70;10.05;;;;;;;;;;4994967;28;20052;-73
2022/03/05 02:40:14;;;;;;;23.00;9.32;;;;;;;;;;5011019;28;20041;-73
2022/03/05 02:42:40;;;;;;;19.88;8.95;;;;;;;;;;5010892;28;20128;-73
2022/03/05 02:45:07;;;;;;;22.85;9.63;;;;;;;;;;5010756;28;20045;-74
2022/03/05 02:47:33;;;;;;;23.15;9.93;;;;;;;;;;5028183;28;20077;-74
2022/03/05 02:49:59;;;;;;;20.08;9.52;;;;;;;;;;5028558;28;20041;-73
2022/03/05 02:52:25;;;;;;;21.98;9.45;;;;;;;;;;5010413;28;20106;-73
2022/03/05 02:54:51;;;;;;;19.90;8.45;;;;;;;;;;5010729;28;20478;-73
2022/03/05 02:57:17;;;;;;;21.48;10.00;;;;;;;;;;5010583;28;20088;-76
2022/03/05 02:59:43;;;;;;;21.55;9.57;;;;;;;;;;5028469;28;20049;-74
2022/03/05 03:02:09;;;;;;;21.42;9.70;;;;;;;;;;5007731;28;20190;-74
2022/03/05 03:04:35;;;;;;;21.27;9.75;;;;;;;;;;5025476;28;20053;-73
2022/03/05 03:07:01;;;;;;;26.52;10.30;;;;;;;;;;5027644;28;20045;-73
2022/03/05 03:09:30;;;;;;;24.63;10.35;;;;;;;;;;4994140;28;20124;-73
2022/03/05 03:11:56;;;;;;;21.77;9.13;;;;;;;;;;4994401;28;20076;-74
2022/03/05 03:14:22;;;;;;;22.63;9.20;;;;;;;;;;4993461;28;20046;-73
2022/03/05 03:16:48;;;;;;;21.13;9.82;;;;;;;;;;5010147;28;20051;-73
2022/03/05 03:19:14;;;;;;;22.05;9.05;;;;;;;;;;5010314;28;20041;-74
2022/03/05 03:21:40;;;;;;;20.52;9.20;;;;;;;;;;4993830;28;20060;-74
2022/03/05 03:24:06;;;;;;;22.27;9.35;;;;;;;;;;5010648;28;20613;-74
2022/03/05 03:26:32;;;;;;;22.83;9.13;;;;;;;;;;5027554;28;20056;-74
2022/03/05 03:28:58;;;;;;;21.73;9.55;;;;;;;;;;5010887;28;20486;-74
2022/03/05 03:31:25;;;;;;;26.00;9.02;;;;;;;;;;4993583;28;20561;-74
2022/03/05 03:33:51;;;;;;;20.70;7.72;;;;;;;;;;5009942;28;20057;-74
2022/03/05 03:36:17;;;;;;;20.45;9.07;;;;;;;;;;4994096;28;20049;-76
2022/03/05 03:38:43;;;;;;;23.40;8.48;;;;;;;;;;4994462;28;20049;-76
2022/03/05 03:41:09;;;;;;;17.27;7.25;;;;;;;;;;5010145;28;20126;-76
2022/03/05 03:43:36;;;;;;;21.83;9.60;;;;;;;;;;4977703;28;20049;-76
2022/03/05 03:46:02;;;;;;;20.50;8.60;;;;;;;;;;5027896;28;20446;-76
2022/03/05 03:48:28;;;;;;;18.95;8.20;;;;;;;;;;5009811;28;20090;-76
2022/03/05 03:50:54;;;;;;;22.83;8.63;;;;;;;;;;5010585;28;20390;-76
2022/03/05 03:53:20;;;;;;;19.83;9.52;;;;;;;;;;5009954;28;20072;-76
2022/03/05 03:55:46;;;;;;;20.23;8.45;;;;;;;;;;5010026;28;20124;-76
2022/03/05 03:58:12;;;;;;;23.38;8.88;;;;;;;;;;4999751;28;20073;-76
2022/03/05 04:00:38;;;;;;;20.17;8.35;;;;;;;;;;4989929;28;20175;-76
2022/03/05 04:03:04;;;;;;;19.67;8.38;;;;;;;;;;4990128;28;20107;-76
2022/03/05 04:05:30;;;;;;;19.13;8.10;;;;;;;;;;4973707;28;20502;-76
2022/03/05 04:10:41;;;;;;;22.80;8.70;;;;;;;;;;4990156;28;20063;-76
2022/03/05 04:13:08;;;;;;;20.70;8.45;;;;;;;;;;4990378;28;20129;-74
2022/03/05 04:15:34;;;;;;;21.98;8.43;;;;;;;;;;5006948;28;20170;-74
2022/03/05 04:18:00;;;;;;;17.35;7.45;;;;;;;;;;4990197;28;20454;-75
2022/03/05 04:20:26;;;;;;;18.13;7.85;;;;;;;;;;4989452;28;20491;-75
2022/03/05 04:22:52;;;;;;;18.77;8.43;;;;;;;;;;4989768;28;20041;-74
2022/03/05 04:25:18;;;;;;;19.27;8.13;;;;;;;;;;4989811;28;20046;-75
2022/03/05 04:27:45;;;;;;;17.63;6.35;;;;;;;;;;4991749;28;20091;-75
2022/03/05 04:30:11;;;;;;;18.42;7.20;;;;;;;;;;4993861;28;20077;-75
2022/03/05 04:32:38;;;;;;;16.15;6.65;;;;;;;;;;4993013;28;20379;-76
2022/03/05 04:35:05;;;;;;;21.08;8.75;;;;;;;;;;4993060;28;20110;-76
2022/03/05 04:37:31;;;;;;;17.08;8.30;;;;;;;;;;4976783;28;20132;-76
2022/03/05 04:39:57;;;;;;;18.60;7.38;;;;;;;;;;5011005;28;20514;-75
2022/03/05 04:42:23;;;;;;;17.00;6.47;;;;;;;;;;4993075;28;20089;-75
2022/03/05 04:44:49;;;;;;;20.25;7.65;;;;;;;;;;4977124;28;20096;-76
2022/03/05 04:47:15;;;;;;;18.88;6.47;;;;;;;;;;5010711;28;20037;-75
2022/03/05 04:49:41;;;;;;;15.35;6.10;;;;;;;;;;4993277;28;20050;-76
2022/03/05 04:52:08;;;;;;;18.95;7.80;;;;;;;;;;5005772;28;20053;-75
2022/03/05 04:54:34;;;;;;;18.30;8.07;;;;;;;;;;5009269;28;20380;-75
2022/03/05 04:57:00;;;;;;;18.70;8.30;;;;;;;;;;5008748;28;20064;-75
2022/03/05 04:59:26;;;;;;;17.77;7.35;;;;;;;;;;5009862;28;20064;-75
2022/03/05 05:01:53;;;;;;;20.00;8.27;;;;;;;;;;5014162;28;20037;-75
2022/03/05 05:04:19;;;;;;;18.45;6.50;;;;;;;;;;5014910;28;20399;-75
2022/03/05 05:06:45;;;;;;;14.88;6.45;;;;;;;;;;4991336;28;20073;-76
2022/03/05 05:09:11;;;;;;;15.77;6.72;;;;;;;;;;5009179;28;20037;-75
2022/03/05 05:11:38;;;;;;;18.00;7.47;;;;;;;;;;5010246;28;20046;-76
2022/03/05 05:14:04;;;;;;;21.27;8.85;;;;;;;;;;5009519;28;20041;-76
2022/03/05 05:16:30;;;;;;;23.67;8.40;;;;;;;;;;4992115;28;20052;-76
2022/03/05 05:21:41;;;;;;;17.20;6.95;;;;;;;;;;4994362;28;20058;-76
2022/03/05 05:24:07;;;;;;;21.67;8.02;;;;;;;;;;5008999;28;20046;-76
2022/03/05 05:26:33;;;;;;;14.85;5.82;;;;;;;;;;4992217;28;20098;-76
2022/03/05 05:28:59;;;;;;;23.65;8.05;;;;;;;;;;4992945;28;20560;-76
2022/03/05 05:31:25;;;;;;;20.42;7.90;;;;;;;;;;4992061;28;20045;-76
2022/03/05 05:33:52;;;;;;;23.85;8.85;;;;;;;;;;4992892;28;20091;-76
2022/03/05 05:36:18;;;;;;;19.30;7.28;;;;;;;;;;5008822;28;20069;-76
2022/03/05 05:38:44;;;;;;;24.85;8.82;;;;;;;;;;5008328;28;20042;-76
2022/03/05 05:41:12;;;;;;;21.27;8.10;;;;;;;;;;4992510;28;20046;-76
2022/03/05 05:43:38;;;;;;;14.27;5.97;;;;;;;;;;5008453;28;20099;-76
2022/03/05 05:46:04;;;;;;;19.45;7.53;;;;;;;;;;5008721;28;20038;-76
2022/03/05 05:48:30;;;;;;;21.45;8.40;;;;;;;;;;5008200;28;20530;-76
2022/03/05 05:50:56;;;;;;;18.95;7.53;;;;;;;;;;5011938;28;20058;-76
2022/03/05 05:53:25;;;;;;;20.02;8.82;;;;;;;;;;5011016;28;20060;-76
2022/03/05 05:55:52;;;;;;;21.42;9.02;;;;;;;;;;4995580;28;20052;-76
2022/03/05 05:58:18;;;;;;;19.48;8.00;;;;;;;;;;5012128;28;20102;-76
2022/03/05 06:00:44;;;;;;;23.58;8.95;;;;;;;;;;5011378;28;20041;-76
2022/03/05 06:03:10;;;;;;;21.70;7.85;;;;;;;;;;5011895;28;20054;-76
2022/03/05 06:05:36;;;;;;;18.40;7.95;;;;;;;;;;4995079;28;20106;-77
2022/03/05 06:08:02;;;;;;;21.13;8.57;;;;;;;;;;5011422;28;20045;-76
2022/03/05 06:10:28;;;;;;;23.05;8.48;;;;;;;;;;5011694;28;20551;-76
2022/03/05 06:12:54;;;;;;;22.83;8.88;;;;;;;;;;5029188;28;20041;-76
2022/03/05 06:15:21;;;;;;;21.38;8.65;;;;;;;;;;5028983;28;20041;-77
2022/03/05 06:17:47;;;;;;;25.35;8.38;;;;;;;;;;5011471;28;20356;-77
2022/03/05 06:20:13;;;;;;;24.23;8.02;;;;;;;;;;5010971;28;20069;-75
2022/03/05 06:22:39;;;;;;;20.00;8.10;;;;;;;;;;5028758;28;20050;-76
2022/03/05 06:25:06;;;;;;;21.17;8.30;;;;;;;;;;5011362;28;20041;-76
2022/03/05 06:27:32;;;;;;;18.80;7.25;;;;;;;;;;5010458;28;20045;-76
2022/03/05 06:29:58;;;;;;;21.40;8.80;;;;;;;;;;5029049;28;20052;-76
2022/03/05 06:32:25;;;;;;;21.10;8.30;;;;;;;;;;5028593;28;20037;-76
2022/03/05 06:34:54;;;;;;;19.98;8.35;;;;;;;;;;5028613;28;20053;-76
2022/03/05 06:37:20;;;;;;;23.55;8.55;;;;;;;;;;4994674;28;20045;-76
2022/03/05 06:39:46;;;;;;;19.90;8.45;;;;;;;;;;5028564;28;20466;-76
2022/03/05 06:42:13;;;;;;;20.00;8.80;;;;;;;;;;4994925;28;20367;-76
2022/03/05 06:44:39;;;;;;;21.55;8.88;;;;;;;;;;5028429;28;20056;-76
2022/03/05 06:47:05;;;;;;;19.00;7.07;;;;;;;;;;5011297;28;20533;-77
2022/03/05 06:49:31;;;;;;;23.15;10.07;;;;;;;;;;5010030;28;20456;-77
2022/03/05 06:51:58;;;;;;;17.60;7.13;;;;;;;;;;4994265;28;20041;-76
2022/03/05 06:54:25;;;;;;;17.45;8.18;;;;;;;;;;4994411;28;20037;-77
2022/03/05 06:56:51;;;;;;;15.80;6.53;;;;;;;;;;5010980;28;20057;-76
2022/03/05 06:59:17;;;;;;;20.90;8.68;;;;;;;;;;5010887;28;20060;-76
2022/03/05 07:01:44;;;;;;;18.20;8.23;;;;;;;;;;5028064;28;21117;-77
2022/03/05 07:04:10;;;;;;;20.08;8.43;;;;;;;;;;5010426;28;20133;-76
2022/03/05 07:06:39;;;;;;;16.85;7.18;;;;;;;;;;5028276;28;20045;-76
2022/03/05 07:09:05;;;;;;;18.02;7.03;;;;;;;;;;4995008;28;20120;-76
2022/03/05 07:11:32;;;;;;;17.27;7.57;;;;;;;;;;5010810;28;20498;-76
2022/03/05 07:13:59;;;;;;;15.27;6.40;;;;;;;;;;5028539;28;20037;-76
2022/03/05 07:16:25;;;;;;;16.92;8.18;;;;;;;;;;4994522;28;20085;-76
2022/03/05 07:18:51;;;;;;;16.17;7.50;;;;;;;;;;5027965;28;20049;-76
2022/03/05 07:21:18;;;;;;;13.85;6.18;;;;;;;;;;5010361;28;20042;-76
2022/03/05 07:23:44;;;;;;;16.38;7.65;;;;;;;;;;4993671;28;20054;-76
2022/03/05 07:26:10;;;;;;;15.57;6.93;;;;;;;;;;5010935;28;20045;-76
2022/03/05 07:28:36;;;;;;;15.68;7.82;;;;;;;;;;5010072;28;20508;-76
2022/03/05 07:31:02;;;;;;;14.20;7.00;;;;;;;;;;5010423;28;20045;-76
2022/03/05 07:33:28;;;;;;;15.70;7.57;;;;;;;;;;5010094;28;20128;-76
2022/03/05 07:35:55;;;;;;;17.05;8.35;;;;;;;;;;4993770;28;20096;-76
2022/03/05 07:38:21;;;;;;;17.95;7.78;;;;;;;;;;5010364;28;20498;-76
2022/03/05 07:40:47;;;;;;;12.18;5.65;;;;;;;;;;5009939;28;20129;-76
2022/03/05 07:43:13;;;;;;;13.18;6.85;;;;;;;;;;5027670;28;20037;-76
2022/03/05 07:45:39;;;;;;;14.05;6.85;;;;;;;;;;5009899;28;20521;-76
2022/03/05 07:48:05;;;;;;;12.90;6.93;;;;;;;;;;5010140;28;20405;-76
2022/03/05 07:50:32;;;;;;;14.50;7.45;;;;;;;;;;5009701;28;20045;-76
2022/03/05 07:52:58;;;;;;;16.17;7.47;;;;;;;;;;4993536;28;20124;-76
2022/03/05 07:55:24;;;;;;;13.88;5.80;;;;;;;;;;4993463;28;20126;-76
2022/03/05 07:57:50;;;;;;;13.18;6.57;;;;;;;;;;4993459;28;20050;-76
2022/03/05 08:00:16;;;;;;;15.25;6.72;;;;;;;;;;4993559;28;20064;-76
2022/03/05 08:02:42;;;;;;;12.82;6.72;;;;;;;;;;5009440;28;20409;-74
2022/03/05 08:05:09;;;;;;;16.80;7.32;;;;;;;;;;4993580;28;20037;-76
2022/03/05 08:07:35;;;;;;;14.45;7.10;;;;;;;;;;5009784;28;20038;-76
2022/03/05 08:10:01;;;;;;;14.32;6.90;;;;;;;;;;5026768;28;20589;-76
2022/03/05 08:12:27;;;;;;;15.85;7.70;;;;;;;;;;5009701;28;20038;-74
2022/03/05 08:14:54;;;;;;;14.02;4.88;;;;;;;;;;4993495;28;20042;-73
2022/03/05 08:17:20;;;;;;;15.50;6.40;;;;;;;;;;5027581;28;20049;-74
2022/03/05 08:19:46;;;;;;;14.80;7.28;;;;;;;;;;4992949;28;20525;-74
2022/03/05 08:22:12;;;;;;;15.50;7.95;;;;;;;;;;5027064;28;20050;-74
2022/03/05 08:24:38;;;;;;;17.27;8.23;;;;;;;;;;4992512;28;20044;-75
2022/03/05 08:27:04;;;;;;;11.32;4.60;;;;;;;;;;5027102;28;20387;-74
2022/03/05 08:29:30;;;;;;;14.85;7.30;;;;;;;;;;5026954;28;20112;-74
2022/03/05 08:31:56;;;;;;;14.52;6.60;;;;;;;;;;4992755;28;20060;-75
2022/03/05 08:34:22;;;;;;;16.30;8.60;;;;;;;;;;5008944;28;20054;-75
2022/03/05 08:36:49;;;;;;;18.35;8.43;;;;;;;;;;5008993;28;20110;-74
2022/03/05 08:39:15;;;;;;;18.23;8.73;;;;;;;;;;5026906;28;20034;-76
2022/03/05 08:41:41;;;;;;;16.05;8.68;;;;;;;;;;5008924;28;20042;-76
2022/03/05 08:44:07;;;;;;;17.10;8.32;;;;;;;;;;5009446;28;20033;-75
2022/03/05 08:46:33;;;;;;;17.00;8.30;;;;;;;;;;5009033;28;20049;-76
2022/03/05 08:48:59;;;;;;;16.08;8.65;;;;;;;;;;5008800;28;20046;-76
2022/03/05 08:51:25;;;;;;;16.20;8.45;;;;;;;;;;5026719;28;20489;-76
2022/03/05 08:53:51;;;;;;;16.35;9.13;;;;;;;;;;5009475;28;20427;-76
2022/03/05 08:56:17;;;;;;;16.15;9.05;;;;;;;;;;5009200;28;20153;-76
2022/03/05 08:58:43;;;;;;;17.15;9.02;;;;;;;;;;5008742;28;20038;-75
2022/03/05 09:01:09;;;;;;;14.65;8.48;;;;;;;;;;4992294;28;20114;-75
2022/03/05 09:03:35;;;;;;;15.57;9.10;;;;;;;;;;5008836;28;20080;-76
2022/03/05 09:06:02;;;;;;;15.63;8.82;;;;;;;;;;4992635;28;20046;-75
2022/03/05 09:08:28;;;;;;;15.35;8.02;;;;;;;;;;5026528;28;20048;-75
2022/03/05 09:10:54;;;;;;;17.42;9.98;;;;;;;;;;5026349;28;20509;-75
2022/03/05 09:13:20;;;;;;;17.30;9.90;;;;;;;;;;5027619;28;20051;-75
2022/03/05 09:15:46;;;;;;;17.13;10.18;;;;;;;;;;5012230;28;20478;-75
2022/03/05 09:18:12;;;;;;;18.20;10.38;;;;;;;;;;5012228;28;20037;-74
2022/03/05 09:20:38;;;;;;;18.27;9.27;;;;;;;;;;4995109;28;20067;-75
2022/03/05 09:23:04;;;;;;;18.75;11.13;;;;;;;;;;5012377;28;20440;-76
2022/03/05 09:25:31;;;;;;;16.75;8.40;;;;;;;;;;5011792;28;20092;-76
2022/03/05 09:27:57;;;;;;;17.48;10.77;;;;;;;;;;5012545;28;20521;-75
2022/03/05 09:30:23;;;;;;;19.27;10.40;;;;;;;;;;5011651;28;20128;-76
2022/03/05 09:32:49;;;;;;;19.75;10.77;;;;;;;;;;5012138;28;20049;-75
2022/03/05 09:35:15;;;;;;;19.92;11.30;;;;;;;;;;5029744;28;20057;-76
2022/03/05 09:37:42;;;;;;;17.10;9.65;;;;;;;;;;5011525;28;20049;-77
2022/03/05 09:40:09;;;;;;;21.33;11.90;;;;;;;;;;5011919;28;20042;-76
2022/03/05 09:42:36;;;;;;;20.02;11.80;;;;;;;;;;5029549;28;20041;-76
2022/03/05 09:45:03;;;;;;;19.95;11.50;;;;;;;;;;5011735;28;20045;-75
2022/03/05 09:47:29;;;;;;;18.10;10.02;;;;;;;;;;5029855;28;20188;-75
2022/03/05 09:49:55;;;;;;;19.17;10.93;;;;;;;;;;5029115;28;20042;-75
2022/03/05 09:52:21;;;;;;;21.00;12.25;;;;;;;;;;5011775;28;20085;-75
2022/03/05 09:54:48;;;;;;;19.73;11.45;;;;;;;;;;4995251;28;20045;-75
2022/03/05 09:57:15;;;;;;;23.25;12.02;;;;;;;;;;5011395;28;20041;-75
2022/03/05 09:59:41;;;;;;;18.13;10.63;;;;;;;;;;5028625;28;20498;-75
2022/03/05 10:02:07;;;;;;;19.98;11.07;;;;;;;;;;5011888;28;20405;-75
2022/03/05 10:04:34;;;;;;;19.02;11.82;;;;;;;;;;5011151;28;20371;-75
2022/03/05 10:07:07;;;;;;;20.85;12.55;;;;;;;;;;5011231;28;20046;-75
2022/03/05 10:09:33;;;;;;;21.10;11.38;;;;;;;;;;4994927;28;20041;-74
2022/03/05 10:11:59;;;;;;;22.00;12.73;;;;;;;;;;4994952;28;20042;-74
2022/03/05 10:14:25;;;;;;;24.00;11.88;;;;;;;;;;5010922;28;20049;-75
2022/03/05 10:16:59;;;;;;;22.27;11.32;;;;;;;;;;5029091;28;20038;-76
2022/03/05 10:19:25;;;;;;;21.42;12.65;;;;;;;;;;5028579;28;20045;-74
2022/03/05 10:21:56;;;;;;;21.98;12.80;;;;;;;;;;5028941;28;20128;-74
2022/03/05 10:24:29;;;;;;;24.80;13.23;;;;;;;;;;4995063;28;20041;-74
2022/03/05 10:26:57;;;;;;;21.38;11.48;;;;;;;;;;5011706;28;20375;-75
2022/03/05 10:29:27;;;;;;;19.88;11.88;;;;;;;;;;5011499;28;20521;-74
2022/03/05 10:32:02;;;;;;;20.83;12.85;;;;;;;;;;4994591;28;20042;-74
2022/03/05 10:34:49;;;;;;;21.38;12.75;;;;;;;;;;5010615;28;20052;-74
2022/03/05 10:37:15;;;;;;;21.40;12.43;;;;;;;;;;5010679;28;20049;-74
2022/03/05 10:39:42;;;;;;;23.90;13.05;;;;;;;;;;5010276;28;20276;-75
2022/03/05 10:42:29;;;;;;;22.67;13.45;;;;;;;;;;5010735;28;20041;-75
2022/03/05 10:45:08;;;;;;;22.30;12.43;;;;;;;;;;5010722;28;20068;-74
2022/03/05 10:47:39;;;;;;;20.48;12.82;;;;;;;;;;5010601;28;20068;-74
2022/03/05 10:50:20;;;;;;;21.35;13.10;;;;;;;;;;5010707;28;20566;-74
2022/03/05 10:52:47;;;;;;;20.38;12.55;;;;;;;;;;5008676;28;20077;-74
2022/03/05 10:55:15;;;;;;;21.30;12.80;;;;;;;;;;4991100;28;20144;-74
2022/03/05 10:57:55;;;;;;;23.85;12.45;;;;;;;;;;4990710;28;20142;-74
2022/03/05 11:00:21;;;;;;;21.38;13.00;;;;;;;;;;4990724;28;20049;-74
2022/03/05 11:02:48;;;;;;;21.90;12.95;;;;;;;;;;4991049;28;20053;-74
2022/03/05 11:05:14;;;;;;;24.30;13.02;;;;;;;;;;4991121;28;20491;-74
2022/03/05 11:07:40;;;;;;;19.25;12.18;;;;;;;;;;4974766;28;20046;-74
2022/03/05 11:10:06;;;;;;;19.08;11.27;;;;;;;;;;5008571;28;20052;-76
2022/03/05 11:12:33;;;;;;;21.17;12.02;;;;;;;;;;4990870;28;20042;-76
2022/03/05 11:14:59;;;;;;;21.35;12.90;;;;;;;;;;4974933;28;20487;-75
2022/03/05 11:17:26;;;;;;;20.58;12.82;;;;;;;;;;5008493;28;20405;-76
2022/03/05 11:19:52;;;;;;;20.13;12.43;;;;;;;;;;5008291;28;20096;-75
2022/03/05 11:22:18;;;;;;;21.63;12.38;;;;;;;;;;4990980;28;20564;-73
2022/03/05 11:24:44;;;;;;;20.58;12.32;;;;;;;;;;4990706;28;20495;-74
2022/03/05 11:27:14;;;;;;;22.30;13.23;;;;;;;;;;5007991;28;20536;-74
2022/03/05 11:30:07;;;;;;;22.02;12.85;;;;;;;;;;4990736;28;20050;-74
2022/03/05 11:32:35;;;;;;;21.20;13.23;;;;;;;;;;4973489;28;20513;-74
2022/03/05 11:35:02;;;;;;;21.30;11.27;;;;;;;;;;4974355;28;20106;-71
2022/03/05 11:37:33;;;;;;;20.83;12.57;;;;;;;;;;4989975;28;20069;-72
2022/03/05 11:40:00;;;;;;;22.52;12.48;;;;;;;;;;4990725;28;20042;-71
2022/03/05 11:42:27;;;;;;;21.77;13.32;;;;;;;;;;4989408;28;20046;-72
2022/03/05 11:44:53;;;;;;;21.27;13.02;;;;;;;;;;4990758;28;20077;-71
2022/03/05 11:47:20;;;;;;;20.42;12.40;;;;;;;;;;4974274;28;20383;-73
2022/03/05 11:50:06;;;;;;;23.70;13.38;;;;;;;;;;4989967;28;20053;-73
2022/03/05 11:52:39;;;;;;;21.90;13.18;;;;;;;;;;5006429;28;20046;-73
2022/03/05 11:55:11;;;;;;;21.08;12.52;;;;;;;;;;5006697;28;20081;-73
2022/03/05 11:57:38;;;;;;;21.00;13.23;;;;;;;;;;5006519;28;20049;-73
2022/03/05 12:00:05;;;;;;;22.02;13.27;;;;;;;;;;5006751;28;20505;-74
2022/03/05 12:02:39;;;;;;;22.83;12.07;;;;;;;;;;4990327;28;20502;-73
2022/03/05 12:05:06;;;;;;;22.73;13.37;;;;;;;;;;5006568;28;20042;-73
2022/03/05 12:07:41;;;;;;;22.02;13.40;;;;;;;;;;4989984;28;20052;-74
2022/03/05 12:10:15;;;;;;;21.67;12.93;;;;;;;;;;5006513;28;20137;-74
2022/03/05 12:13:00;;;;;;;21.58;12.52;;;;;;;;;;5006250;28;20046;-72
2022/03/05 12:15:33;;;;;;;24.45;13.70;;;;;;;;;;5007025;28;20054;-74
2022/03/05 12:18:00;;;;;;;21.45;12.77;;;;;;;;;;5006303;28;20049;-72
2022/03/05 12:20:29;;;;;;;22.55;12.80;;;;;;;;;;5005973;28;20053;-72
2022/03/05 12:23:04;;;;;;;20.58;12.82;;;;;;;;;;5006090;28;20056;-73
2022/03/05 12:25:31;;;;;;;24.13;14.10;;;;;;;;;;5005672;28;20107;-74
2022/03/05 12:27:57;;;;;;;20.75;12.70;;;;;;;;;;5006264;28;20042;-73
2022/03/05 12:30:25;;;;;;;19.98;12.60;;;;;;;;;;5007122;28;20054;-73
2022/03/05 12:32:53;;;;;;;21.35;12.52;;;;;;;;;;5006182;28;20555;-73
2022/03/05 12:35:21;;;;;;;20.35;12.98;;;;;;;;;;5006021;28;20060;-73
2022/03/05 12:37:47;;;;;;;21.48;12.95;;;;;;;;;;5006192;28;20505;-73
2022/03/05 12:40:13;;;;;;;21.73;12.70;;;;;;;;;;5007225;28;20042;-73
2022/03/05 12:42:45;;;;;;;20.40;11.98;;;;;;;;;;5005677;28;20391;-73
2022/03/05 12:45:44;;;;;;;22.60;12.95;;;;;;;;;;5005603;28;20053;-74
2022/03/05 12:48:12;;;;;;;20.38;12.70;;;;;;;;;;5007848;28;20054;-73
2022/03/05 12:50:49;;;;;;;22.95;12.80;;;;;;;;;;4996039;28;20048;-74
2022/03/05 12:53:16;;;;;;;22.50;13.02;;;;;;;;;;5012350;28;20045;-73
2022/03/05 12:55:47;;;;;;;21.05;12.90;;;;;;;;;;5012654;28;20443;-73
2022/03/05 12:58:17;;;;;;;23.80;14.48;;;;;;;;;;5012548;28;20386;-73
2022/03/05 13:00:47;;;;;;;22.80;13.02;;;;;;;;;;5012305;28;20049;-74
2022/03/05 13:03:14;;;;;;;20.92;13.10;;;;;;;;;;5012375;28;20051;-74
2022/03/05 13:05:42;;;;;;;21.67;12.48;;;;;;;;;;5012117;28;20037;-75
2022/03/05 13:08:12;;;;;;;23.73;13.65;;;;;;;;;;4996551;28;20170;-74
2022/03/05 13:10:39;;;;;;;23.48;12.57;;;;;;;;;;5012363;28;20084;-73
2022/03/05 13:13:05;;;;;;;22.05;12.52;;;;;;;;;;5012748;28;20504;-73
2022/03/05 13:15:32;;;;;;;22.02;12.32;;;;;;;;;;5029725;28;20037;-73
2022/03/05 13:18:09;;;;;;;23.20;14.07;;;;;;;;;;5029844;28;20037;-72
2022/03/05 13:20:35;;;;;;;21.88;12.25;;;;;;;;;;5011619;28;20833;-73
2022/03/05 13:23:02;;;;;;;25.15;13.43;;;;;;;;;;4996000;28;20052;-74
2022/03/05 13:25:29;;;;;;;21.95;11.85;;;;;;;;;;4995811;28;20053;-73
2022/03/05 13:27:55;;;;;;;24.70;13.73;;;;;;;;;;5012108;28;20050;-74
2022/03/05 13:30:26;;;;;;;24.27;12.25;;;;;;;;;;5012050;28;20084;-73
2022/03/05 13:32:53;;;;;;;23.65;12.80;;;;;;;;;;4995981;28;20038;-73
2022/03/05 13:35:27;;;;;;;25.05;12.50;;;;;;;;;;5011373;28;20072;-72
2022/03/05 13:37:54;;;;;;;25.00;11.98;;;;;;;;;;5011607;28;20053;-74
2022/03/05 13:40:20;;;;;;;23.23;10.02;;;;;;;;;;5012274;28;20061;-74
2022/03/05 13:42:46;;;;;;;24.60;12.23;;;;;;;;;;5011764;28;20076;-74
2022/03/05 13:45:14;;;;;;;25.60;12.02;;;;;;;;;;4996116;28;20044;-73
2022/03/05 13:47:45;;;;;;;25.17;12.27;;;;;;;;;;5011502;28;20037;-73
2022/03/05 13:50:12;;;;;;;24.77;12.55;;;;;;;;;;5011732;28;20132;-72
2022/03/05 13:52:39;;;;;;;28.67;13.23;;;;;;;;;;5011412;28;20053;-73
2022/03/05 13:55:06;;;;;;;25.52;11.38;;;;;;;;;;5012003;28;20037;-74
2022/03/05 13:57:33;;;;;;;24.58;12.60;;;;;;;;;;5028920;28;20037;-74
2022/03/05 14:00:14;;;;;;;25.95;12.65;;;;;;;;;;5011182;28;20092;-73
2022/03/05 14:02:40;;;;;;;26.17;12.45;;;;;;;;;;5028860;28;20564;-72
2022/03/05 14:05:11;;;;;;;26.67;11.73;;;;;;;;;;4995270;28;20478;-71
2022/03/05 14:07:38;;;;;;;25.77;11.98;;;;;;;;;;5028887;28;20037;-73
2022/03/05 14:10:05;;;;;;;25.52;12.35;;;;;;;;;;5029756;28;20951;-73
2022/03/05 14:12:31;;;;;;;27.58;13.13;;;;;;;;;;5028801;28;20041;-73
2022/03/05 14:14:59;;;;;;;26.63;11.82;;;;;;;;;;5011205;28;20046;-73
2022/03/05 14:17:26;;;;;;;28.73;13.30;;;;;;;;;;5011069;28;20065;-73
2022/03/05 14:20:05;;;;;;;25.55;12.48;;;;;;;;;;5011594;28;20048;-74
2022/03/05 14:22:36;;;;;;;28.13;13.13;;;;;;;;;;4994635;28;20386;-73
2022/03/05 14:25:02;;;;;;;28.00;13.63;;;;;;;;;;4979014;28;20041;-72
2022/03/05 14:27:28;;;;;;;28.52;13.38;;;;;;;;;;5011820;28;20565;-73
2022/03/05 14:29:54;;;;;;;28.08;13.48;;;;;;;;;;5010899;28;20045;-73